Louisville, Kentucky
Current Conditions -  °F | °C
As of 6:56 AM on Sunday 25 Jan 2015 (Local Time) from KSDF Reporting Station
Overcast Overcast  
Wind Chill: 33°   Ceiling: 15000
Heat Index: 39°   Visibility: 10mi
Dew Point: 30°   Wind: 9mph
Humidity: 70%   Direction: 150°SSE
Pressure: 29.72"   Gusts: NA
Location:  38.25°N, 85.77°W
Report Text: KSDF 251156Z 15008KT 10SM OVC150 04/M01 A2972 RMK AO2 SLP066 T00391011 10056 20028 58016
Loading
Personal Weather Stations






























Interactive Weather Map New forecast layout! Learn more

10-Day Weather Forecast

Advertisements
Track Severe Weather on mobile